sensor_id;sensor_type;location;lat;lon;timestamp;P1;durP1;ratioP1;P2;durP2;ratioP2
9094;SDS011;4583;49.796;9.902;2023-11-19T00:05:15;5.27;;;3.77;;
9094;SDS011;4583;49.796;9.902;2023-11-19T00:15:17;6.00;;;4.30;;
9094;SDS011;4583;49.796;9.902;2023-11-19T00:32:16;5.97;;;4.20;;
9094;SDS011;4583;49.796;9.902;2023-11-19T00:42:18;4.77;;;3.70;;
9094;SDS011;4583;49.796;9.902;2023-11-19T00:52:21;5.47;;;3.97;;
9094;SDS011;4583;49.796;9.902;2023-11-19T01:02:24;5.70;;;3.50;;
9094;SDS011;4583;49.796;9.902;2023-11-19T01:12:26;5.60;;;4.07;;
9094;SDS011;4583;49.796;9.902;2023-11-19T01:22:27;6.87;;;3.73;;
9094;SDS011;4583;49.796;9.902;2023-11-19T01:32:29;4.93;;;4.00;;
9094;SDS011;4583;49.796;9.902;2023-11-19T01:42:38;7.30;;;4.07;;
9094;SDS011;4583;49.796;9.902;2023-11-19T01:52:41;4.20;;;3.73;;
9094;SDS011;4583;49.796;9.902;2023-11-19T02:02:43;4.53;;;3.60;;
9094;SDS011;4583;49.796;9.902;2023-11-19T02:12:46;4.50;;;3.17;;
9094;SDS011;4583;49.796;9.902;2023-11-19T02:22:48;2.60;;;2.10;;
9094;SDS011;4583;49.796;9.902;2023-11-19T02:32:52;3.23;;;2.00;;
9094;SDS011;4583;49.796;9.902;2023-11-19T02:42:55;1.87;;;1.67;;
9094;SDS011;4583;49.796;9.902;2023-11-19T02:52:59;4.77;;;2.47;;
9094;SDS011;4583;49.796;9.902;2023-11-19T03:03:02;5.73;;;2.70;;
9094;SDS011;4583;49.796;9.902;2023-11-19T03:13:19;1.80;;;1.57;;
9094;SDS011;4583;49.796;9.902;2023-11-19T03:23:21;1.73;;;1.47;;
9094;SDS011;4583;49.796;9.902;2023-11-19T03:33:24;1.37;;;1.27;;
9094;SDS011;4583;49.796;9.902;2023-11-19T03:43:27;0.80;;;0.80;;
9094;SDS011;4583;49.796;9.902;2023-11-19T03:53:30;0.90;;;0.90;;
9094;SDS011;4583;49.796;9.902;2023-11-19T04:03:32;0.77;;;0.77;;
9094;SDS011;4583;49.796;9.902;2023-11-19T04:13:34;0.80;;;0.80;;
9094;SDS011;4583;49.796;9.902;2023-11-19T04:23:36;1.00;;;0.87;;
9094;SDS011;4583;49.796;9.902;2023-11-19T04:33:38;0.80;;;0.80;;
9094;SDS011;4583;49.796;9.902;2023-11-19T04:43:41;0.77;;;0.77;;
9094;SDS011;4583;49.796;9.902;2023-11-19T04:53:43;0.67;;;0.67;;
9094;SDS011;4583;49.796;9.902;2023-11-19T05:03:45;0.83;;;0.83;;
9094;SDS011;4583;49.796;9.902;2023-11-19T05:13:47;1.40;;;0.80;;
9094;SDS011;4583;49.796;9.902;2023-11-19T05:23:49;0.90;;;0.90;;
9094;SDS011;4583;49.796;9.902;2023-11-19T05:33:52;1.10;;;1.00;;
9094;SDS011;4583;49.796;9.902;2023-11-19T05:43:54;2.53;;;1.10;;
9094;SDS011;4583;49.796;9.902;2023-11-19T05:53:56;1.70;;;1.60;;
9094;SDS011;4583;49.796;9.902;2023-11-19T06:03:58;1.20;;;1.10;;
9094;SDS011;4583;49.796;9.902;2023-11-19T06:14:02;1.00;;;0.90;;
9094;SDS011;4583;49.796;9.902;2023-11-19T06:24:06;1.20;;;1.10;;
9094;SDS011;4583;49.796;9.902;2023-11-19T06:34:10;1.10;;;1.00;;
9094;SDS011;4583;49.796;9.902;2023-11-19T06:44:12;0.93;;;0.93;;
9094;SDS011;4583;49.796;9.902;2023-11-19T06:54:14;1.60;;;1.10;;
9094;SDS011;4583;49.796;9.902;2023-11-19T07:04:17;1.30;;;1.20;;
9094;SDS011;4583;49.796;9.902;2023-11-19T07:14:19;1.47;;;1.20;;
9094;SDS011;4583;49.796;9.902;2023-11-19T07:24:22;2.53;;;1.10;;
9094;SDS011;4583;49.796;9.902;2023-11-19T07:34:24;1.20;;;1.10;;
9094;SDS011;4583;49.796;9.902;2023-11-19T07:44:26;1.33;;;1.00;;
9094;SDS011;4583;49.796;9.902;2023-11-19T07:54:28;1.00;;;1.00;;
9094;SDS011;4583;49.796;9.902;2023-11-19T08:04:31;0.70;;;0.70;;
9094;SDS011;4583;49.796;9.902;2023-11-19T08:14:33;1.50;;;1.40;;
9094;SDS011;4583;49.796;9.902;2023-11-19T08:24:35;1.20;;;1.10;;
9094;SDS011;4583;49.796;9.902;2023-11-19T08:34:37;1.63;;;1.17;;
9094;SDS011;4583;49.796;9.902;2023-11-19T08:44:39;2.20;;;1.50;;
9094;SDS011;4583;49.796;9.902;2023-11-19T08:54:44;2.27;;;1.67;;
9094;SDS011;4583;49.796;9.902;2023-11-19T09:04:46;1.67;;;1.27;;
9094;SDS011;4583;49.796;9.902;2023-11-19T09:14:51;2.13;;;1.30;;
9094;SDS011;4583;49.796;9.902;2023-11-19T09:24:54;2.23;;;1.43;;
9094;SDS011;4583;49.796;9.902;2023-11-19T09:34:56;3.93;;;1.70;;
9094;SDS011;4583;49.796;9.902;2023-11-19T09:44:58;2.83;;;1.20;;
9094;SDS011;4583;49.796;9.902;2023-11-19T09:55:01;2.40;;;1.40;;
9094;SDS011;4583;49.796;9.902;2023-11-19T10:05:04;4.73;;;1.50;;
9094;SDS011;4583;49.796;9.902;2023-11-19T10:15:06;3.87;;;1.70;;
9094;SDS011;4583;49.796;9.902;2023-11-19T10:25:23;3.17;;;1.47;;
9094;SDS011;4583;49.796;9.902;2023-11-19T10:35:26;3.53;;;1.60;;
9094;SDS011;4583;49.796;9.902;2023-11-19T10:45:28;2.67;;;1.20;;
9094;SDS011;4583;49.796;9.902;2023-11-19T10:55:31;4.53;;;1.53;;
9094;SDS011;4583;49.796;9.902;2023-11-19T11:05:33;3.03;;;1.67;;
9094;SDS011;4583;49.796;9.902;2023-11-19T11:15:35;3.00;;;1.53;;
9094;SDS011;4583;49.796;9.902;2023-11-19T11:25:40;3.10;;;1.30;;
9094;SDS011;4583;49.796;9.902;2023-11-19T11:36:22;1.43;;;1.30;;
9094;SDS011;4583;49.796;9.902;2023-11-19T11:56:36;3.20;;;1.53;;
9094;SDS011;4583;49.796;9.902;2023-11-19T12:06:39;3.50;;;1.43;;
9094;SDS011;4583;49.796;9.902;2023-11-19T12:16:41;2.83;;;1.33;;
9094;SDS011;4583;49.796;9.902;2023-11-19T12:26:43;3.63;;;1.30;;
9094;SDS011;4583;49.796;9.902;2023-11-19T12:36:49;3.97;;;1.37;;
9094;SDS011;4583;49.796;9.902;2023-11-19T12:47:01;3.50;;;1.47;;
9094;SDS011;4583;49.796;9.902;2023-11-19T12:57:04;5.10;;;1.50;;
9094;SDS011;4583;49.796;9.902;2023-11-19T13:07:06;3.07;;;1.20;;
9094;SDS011;4583;49.796;9.902;2023-11-19T13:17:08;4.07;;;1.47;;
9094;SDS011;4583;49.796;9.902;2023-11-19T13:27:11;4.57;;;1.50;;
9094;SDS011;4583;49.796;9.902;2023-11-19T13:37:13;3.17;;;1.27;;
9094;SDS011;4583;49.796;9.902;2023-11-19T13:47:15;3.37;;;1.37;;
9094;SDS011;4583;49.796;9.902;2023-11-19T13:57:17;4.30;;;1.47;;
9094;SDS011;4583;49.796;9.902;2023-11-19T14:07:19;6.63;;;1.40;;
9094;SDS011;4583;49.796;9.902;2023-11-19T14:17:21;6.70;;;3.70;;
9094;SDS011;4583;49.796;9.902;2023-11-19T14:27:24;6.10;;;1.60;;
9094;SDS011;4583;49.796;9.902;2023-11-19T14:37:26;7.07;;;2.70;;
9094;SDS011;4583;49.796;9.902;2023-11-19T14:47:28;5.37;;;2.17;;
9094;SDS011;4583;49.796;9.902;2023-11-19T14:57:31;3.77;;;2.07;;
9094;SDS011;4583;49.796;9.902;2023-11-19T15:14:59;6.50;;;1.40;;
9094;SDS011;4583;49.796;9.902;2023-11-19T15:25:01;4.13;;;1.60;;
9094;SDS011;4583;49.796;9.902;2023-11-19T15:35:04;5.63;;;2.13;;
9094;SDS011;4583;49.796;9.902;2023-11-19T15:45:09;4.50;;;1.70;;
9094;SDS011;4583;49.796;9.902;2023-11-19T15:55:12;7.57;;;1.80;;
9094;SDS011;4583;49.796;9.902;2023-11-19T16:05:15;3.23;;;1.40;;
9094;SDS011;4583;49.796;9.902;2023-11-19T16:15:17;4.37;;;1.50;;
9094;SDS011;4583;49.796;9.902;2023-11-19T16:25:24;6.17;;;1.60;;
9094;SDS011;4583;49.796;9.902;2023-11-19T16:35:26;4.00;;;1.60;;
9094;SDS011;4583;49.796;9.902;2023-11-19T16:45:28;6.73;;;1.77;;
9094;SDS011;4583;49.796;9.902;2023-11-19T16:55:31;9.10;;;4.13;;
9094;SDS011;4583;49.796;9.902;2023-11-19T17:05:33;9.70;;;2.00;;
9094;SDS011;4583;49.796;9.902;2023-11-19T17:15:35;6.57;;;2.10;;
9094;SDS011;4583;49.796;9.902;2023-11-19T17:25:38;5.37;;;1.80;;
9094;SDS011;4583;49.796;9.902;2023-11-19T17:35:41;5.70;;;1.90;;
9094;SDS011;4583;49.796;9.902;2023-11-19T17:45:43;7.83;;;2.20;;
9094;SDS011;4583;49.796;9.902;2023-11-19T17:55:46;8.43;;;1.80;;
9094;SDS011;4583;49.796;9.902;2023-11-19T18:05:48;9.67;;;3.00;;
9094;SDS011;4583;49.796;9.902;2023-11-19T18:15:50;9.03;;;2.00;;
9094;SDS011;4583;49.796;9.902;2023-11-19T18:25:52;6.03;;;1.67;;
9094;SDS011;4583;49.796;9.902;2023-11-19T18:35:54;6.23;;;2.40;;
9094;SDS011;4583;49.796;9.902;2023-11-19T18:45:56;8.97;;;2.07;;
9094;SDS011;4583;49.796;9.902;2023-11-19T18:55:59;6.07;;;2.03;;
9094;SDS011;4583;49.796;9.902;2023-11-19T19:06:01;6.80;;;2.10;;
9094;SDS011;4583;49.796;9.902;2023-11-19T19:16:07;8.87;;;2.50;;
9094;SDS011;4583;49.796;9.902;2023-11-19T19:26:10;7.03;;;1.87;;
9094;SDS011;4583;49.796;9.902;2023-11-19T19:36:12;6.13;;;1.70;;
9094;SDS011;4583;49.796;9.902;2023-11-19T19:46:14;9.30;;;2.33;;
9094;SDS011;4583;49.796;9.902;2023-11-19T19:56:16;6.93;;;2.13;;
9094;SDS011;4583;49.796;9.902;2023-11-19T20:06:19;6.03;;;1.73;;
9094;SDS011;4583;49.796;9.902;2023-11-19T20:16:22;7.83;;;2.00;;
9094;SDS011;4583;49.796;9.902;2023-11-19T20:26:24;11.10;;;2.70;;
9094;SDS011;4583;49.796;9.902;2023-11-19T20:36:27;12.73;;;3.10;;
9094;SDS011;4583;49.796;9.902;2023-11-19T20:46:29;14.50;;;2.83;;
9094;SDS011;4583;49.796;9.902;2023-11-19T20:56:31;7.40;;;2.70;;
9094;SDS011;4583;49.796;9.902;2023-11-19T21:06:33;9.67;;;2.33;;
9094;SDS011;4583;49.796;9.902;2023-11-19T21:16:55;10.43;;;2.57;;
9094;SDS011;4583;49.796;9.902;2023-11-19T21:26:57;7.27;;;2.40;;
9094;SDS011;4583;49.796;9.902;2023-11-19T21:36:59;7.47;;;1.80;;
9094;SDS011;4583;49.796;9.902;2023-11-19T21:47:02;11.53;;;2.53;;
9094;SDS011;4583;49.796;9.902;2023-11-19T21:57:04;11.60;;;2.43;;
9094;SDS011;4583;49.796;9.902;2023-11-19T22:07:06;6.67;;;1.93;;
9094;SDS011;4583;49.796;9.902;2023-11-19T22:17:08;10.07;;;2.70;;
9094;SDS011;4583;49.796;9.902;2023-11-19T22:27:11;7.13;;;1.83;;
9094;SDS011;4583;49.796;9.902;2023-11-19T22:37:13;9.83;;;1.83;;
9094;SDS011;4583;49.796;9.902;2023-11-19T22:47:15;8.53;;;2.10;;
9094;SDS011;4583;49.796;9.902;2023-11-19T22:57:17;11.20;;;2.73;;
9094;SDS011;4583;49.796;9.902;2023-11-19T23:07:21;10.40;;;2.10;;
9094;SDS011;4583;49.796;9.902;2023-11-19T23:17:23;19.60;;;2.50;;
9094;SDS011;4583;49.796;9.902;2023-11-19T23:27:27;9.83;;;1.90;;
9094;SDS011;4583;49.796;9.902;2023-11-19T23:37:30;8.90;;;2.33;;
9094;SDS011;4583;49.796;9.902;2023-11-19T23:47:32;11.40;;;2.53;;
9094;SDS011;4583;49.796;9.902;2023-11-19T23:57:34;11.03;;;2.27;;
